createdAt,value
2019-01-23T00:02:45.509Z,26.70
2019-01-23T00:07:50.844Z,27.53
2019-01-23T00:12:56.159Z,27.90
2019-01-23T00:18:01.480Z,26.07
2019-01-23T00:23:06.815Z,27.83
2019-01-23T00:28:12.161Z,27.90
2019-01-23T00:33:17.480Z,28.10
2019-01-23T00:38:22.814Z,27.10
2019-01-23T00:43:28.175Z,28.90
2019-01-23T00:48:33.498Z,28.50
2019-01-23T00:53:38.840Z,29.50
2019-01-23T00:58:49.185Z,27.67
2019-01-23T01:03:51.250Z,29.93
2019-01-23T01:08:56.581Z,28.17
2019-01-23T01:14:01.899Z,29.43
2019-01-23T01:19:07.228Z,30.13
2019-01-23T01:24:12.570Z,28.83
2019-01-23T01:29:17.930Z,30.90
2019-01-23T01:34:23.275Z,29.07
2019-01-23T01:39:28.589Z,29.40
2019-01-23T01:44:33.959Z,29.73
2019-01-23T01:49:39.279Z,28.13
2019-01-23T01:54:44.608Z,29.63
2019-01-23T01:59:49.950Z,28.77
2019-01-23T02:04:55.283Z,30.40
2019-01-23T02:10:00.583Z,27.10
2019-01-23T02:15:07.240Z,29.83
2019-01-23T02:20:19.609Z,30.17
2019-01-23T02:25:25.100Z,27.60
2019-01-23T02:30:30.405Z,29.63
2019-01-23T02:35:35.689Z,28.23
2019-01-23T02:40:41.055Z,29.00
2019-01-23T02:45:46.376Z,28.63
2019-01-23T02:50:51.684Z,28.00
2019-01-23T02:55:57.003Z,27.20
2019-01-23T03:01:02.365Z,28.80
2019-01-23T03:06:07.658Z,28.33
2019-01-23T03:11:13.045Z,28.80
2019-01-23T03:16:18.351Z,26.57
2019-01-23T03:21:23.653Z,28.20
2019-01-23T03:26:28.943Z,26.67
2019-01-23T03:31:34.281Z,25.80
2019-01-23T03:36:39.620Z,27.43
2019-01-23T03:41:44.927Z,27.07
2019-01-23T03:46:50.243Z,25.63
2019-01-23T03:51:55.551Z,26.30
2019-01-23T03:57:00.855Z,25.60
2019-01-23T04:02:06.216Z,26.33
2019-01-23T04:07:11.544Z,26.57
2019-01-23T04:12:16.939Z,24.40
2019-01-23T04:17:22.262Z,24.47
2019-01-23T04:22:27.581Z,24.63
2019-01-23T04:27:32.914Z,25.60
2019-01-23T04:32:38.193Z,25.83
2019-01-23T04:37:43.564Z,24.03
2019-01-23T04:42:48.879Z,26.13
2019-01-23T04:47:54.207Z,25.53
2019-01-23T04:53:04.811Z,26.03
2019-01-23T04:58:10.159Z,24.50
2019-01-23T05:03:15.583Z,24.70
2019-01-23T05:08:20.900Z,24.17
2019-01-23T05:13:26.187Z,25.53
2019-01-23T05:18:31.491Z,23.83
2019-01-23T05:23:36.830Z,25.70
2019-01-23T05:28:42.107Z,26.27
2019-01-23T05:33:47.472Z,26.03
2019-01-23T05:38:52.799Z,25.73
2019-01-23T05:43:59.229Z,25.80
2019-01-23T05:49:04.595Z,27.27
2019-01-23T05:54:09.939Z,27.97
2019-01-23T05:59:15.251Z,27.50
2019-01-23T06:04:20.625Z,26.93
2019-01-23T06:09:25.956Z,28.27
2019-01-23T06:14:31.284Z,27.47
2019-01-23T06:19:36.640Z,29.53
2019-01-23T06:24:41.947Z,29.43
2019-01-23T06:29:47.267Z,28.60
2019-01-23T06:34:52.722Z,26.67
2019-01-23T06:39:58.062Z,27.53
2019-01-23T06:45:03.407Z,28.47
2019-01-23T06:50:12.694Z,28.97
2019-01-23T06:55:18.024Z,29.57
2019-01-23T07:00:25.760Z,28.63
2019-01-23T07:05:31.085Z,29.10
2019-01-23T07:10:36.756Z,26.83
2019-01-23T07:15:42.161Z,27.50
2019-01-23T07:20:47.536Z,28.63
2019-01-23T07:25:52.875Z,28.17
2019-01-23T07:30:58.211Z,26.73
2019-01-23T07:36:03.486Z,25.63
2019-01-23T07:41:08.799Z,25.10
2019-01-23T07:46:14.108Z,26.67
2019-01-23T07:51:19.414Z,26.77
2019-01-23T07:56:24.758Z,25.77
2019-01-23T08:01:30.086Z,26.90
2019-01-23T08:06:35.375Z,24.43
2019-01-23T08:11:40.681Z,24.17
2019-01-23T08:16:46.043Z,26.30
2019-01-23T08:21:51.358Z,24.97
2019-01-23T08:26:56.675Z,25.90
2019-01-23T08:32:01.995Z,26.40
2019-01-23T08:37:07.312Z,27.17
2019-01-23T08:42:12.626Z,24.83
2019-01-23T08:47:17.947Z,25.03
2019-01-23T08:52:23.254Z,25.77
2019-01-23T08:57:28.653Z,25.77
2019-01-23T09:02:34.042Z,26.43
2019-01-23T09:07:39.347Z,25.27
2019-01-23T09:12:44.686Z,24.07
2019-01-23T09:17:50.099Z,24.77
2019-01-23T09:22:55.394Z,24.90
2019-01-23T09:28:00.748Z,24.17
2019-01-23T09:33:51.123Z,23.63
2019-01-23T09:40:03.617Z,22.97
2019-01-23T09:45:55.613Z,24.30
2019-01-23T09:51:50.202Z,22.53
2019-01-23T09:56:55.501Z,22.93
2019-01-23T10:02:00.825Z,24.17
2019-01-23T10:07:06.226Z,22.73
2019-01-23T10:12:13.345Z,22.90
2019-01-23T10:17:18.743Z,22.00
2019-01-23T10:22:24.111Z,22.40
2019-01-23T10:27:29.435Z,24.17
2019-01-23T10:32:34.730Z,23.00
2019-01-23T10:37:40.044Z,22.47
2019-01-23T10:42:45.439Z,21.67
2019-01-23T10:47:55.997Z,21.33
2019-01-23T10:52:57.917Z,23.13
2019-01-23T10:58:03.193Z,22.83
2019-01-23T11:03:10.087Z,22.30
2019-01-23T11:08:15.645Z,20.97
2019-01-23T11:13:20.978Z,22.77
2019-01-23T11:18:26.292Z,22.03
2019-01-23T11:23:31.806Z,22.57
2019-01-23T11:28:37.133Z,21.27
2019-01-23T11:33:42.477Z,21.87
2019-01-23T11:38:47.795Z,21.50
2019-01-23T11:43:53.138Z,21.70
2019-01-23T11:48:58.611Z,21.00
2019-01-23T11:54:04.086Z,22.63
2019-01-23T11:59:09.514Z,20.43
2019-01-23T12:04:14.809Z,21.23
2019-01-23T12:09:20.119Z,21.53
2019-01-23T12:14:25.457Z,20.83
2019-01-23T12:19:32.842Z,21.40
2019-01-23T12:24:38.240Z,21.97
2019-01-23T12:29:43.541Z,21.53
2019-01-23T12:34:48.914Z,21.50
2019-01-23T12:39:54.289Z,22.17
2019-01-23T12:44:59.664Z,22.00
2019-01-23T12:50:05.759Z,23.40
2019-01-23T12:55:11.149Z,22.43
2019-01-23T13:00:20.888Z,21.30
2019-01-23T13:05:26.214Z,21.80
2019-01-23T13:10:31.599Z,22.20
2019-01-23T13:15:36.952Z,21.50
2019-01-23T13:20:42.313Z,22.07
2019-01-23T13:25:47.692Z,22.90
2019-01-23T13:30:53.037Z,22.13
2019-01-23T13:35:58.361Z,22.50
2019-01-23T13:41:03.699Z,23.07
2019-01-23T13:46:09.019Z,23.37
2019-01-23T13:51:14.333Z,23.77
2019-01-23T13:56:19.643Z,21.40
2019-01-23T14:01:25.092Z,22.37
2019-01-23T14:06:30.621Z,22.00
2019-01-23T14:11:35.933Z,21.97
2019-01-23T14:16:41.271Z,22.97
2019-01-23T14:21:46.589Z,21.53
2019-01-23T14:26:52.178Z,22.67
2019-01-23T14:32:03.355Z,20.77
2019-01-23T14:37:04.844Z,21.47
2019-01-23T14:42:10.168Z,21.93
2019-01-23T14:47:15.507Z,20.37
2019-01-23T14:52:20.875Z,20.53
2019-01-23T14:57:26.183Z,20.63
2019-01-23T15:02:32.038Z,20.80
2019-01-23T15:07:37.354Z,21.50
2019-01-23T15:12:42.678Z,20.20
2019-01-23T15:17:48.066Z,19.87
2019-01-23T15:22:53.471Z,18.83
2019-01-23T15:27:58.821Z,19.03
2019-01-23T15:33:04.154Z,19.67
2019-01-23T15:38:09.499Z,18.67
2019-01-23T15:43:14.802Z,18.33
2019-01-23T15:48:20.118Z,18.10
2019-01-23T15:53:25.567Z,19.63
2019-01-23T15:58:30.978Z,18.87
2019-01-23T16:03:36.293Z,18.57
2019-01-23T16:08:41.634Z,19.67
2019-01-23T16:13:47.036Z,19.10
2019-01-23T16:18:52.376Z,18.67
2019-01-23T16:23:58.229Z,17.77
2019-01-23T16:29:04.229Z,18.57
2019-01-23T16:34:09.843Z,17.27
2019-01-23T16:39:15.233Z,18.27
2019-01-23T16:44:21.176Z,18.50
2019-01-23T16:49:27.158Z,18.50
2019-01-23T16:54:32.730Z,17.73
2019-01-23T16:59:38.046Z,18.23
2019-01-23T17:04:43.377Z,18.83
2019-01-23T17:09:48.683Z,18.07
2019-01-23T17:14:54.003Z,18.63
2019-01-23T17:19:59.359Z,17.90
2019-01-23T17:25:04.962Z,16.90
2019-01-23T17:30:11.204Z,17.33
2019-01-23T17:35:16.871Z,17.80
2019-01-23T17:40:22.258Z,18.77
2019-01-23T17:45:31.127Z,18.60
2019-01-23T17:50:36.456Z,18.87
2019-01-23T17:55:42.455Z,18.23
2019-01-23T18:00:53.217Z,18.27
2019-01-23T18:05:58.657Z,20.57
2019-01-23T18:11:04.057Z,20.23
2019-01-23T18:16:12.132Z,18.20
2019-01-23T18:21:18.703Z,18.40
2019-01-23T18:26:37.585Z,18.50
2019-01-23T18:31:45.345Z,17.30
2019-01-23T18:37:08.974Z,18.13
2019-01-23T18:43:15.598Z,19.13
2019-01-23T18:49:51.178Z,18.47
2019-01-23T18:54:57.402Z,23.95
2019-01-23T19:00:03.484Z,21.33
2019-01-23T19:05:10.295Z,19.20
2019-01-23T19:10:16.021Z,20.90
2019-01-23T19:15:22.955Z,20.23
2019-01-23T19:20:29.905Z,19.73
2019-01-23T19:25:36.574Z,20.07
2019-01-23T19:30:43.215Z,21.03
2019-01-23T19:35:49.331Z,20.90
2019-01-23T19:40:54.885Z,21.00
2019-01-23T19:46:01.083Z,22.40
2019-01-23T19:51:06.650Z,21.30
2019-01-23T19:56:12.082Z,20.83
2019-01-23T20:01:19.536Z,19.43
2019-01-23T20:06:25.585Z,19.63
2019-01-23T20:11:32.190Z,19.23
2019-01-23T20:16:38.229Z,20.00
2019-01-23T20:21:44.164Z,19.53
2019-01-23T20:26:50.517Z,19.70
2019-01-23T20:31:57.066Z,19.90
2019-01-23T20:37:03.664Z,19.57
2019-01-23T20:42:10.537Z,19.33
2019-01-23T20:47:17.956Z,21.03
2019-01-23T20:52:25.863Z,20.37
2019-01-23T20:57:33.127Z,20.23
2019-01-23T21:02:40.501Z,20.40
2019-01-23T21:07:46.083Z,20.20
2019-01-23T21:12:54.100Z,20.20
2019-01-23T21:18:03.184Z,19.93
2019-01-23T21:23:11.048Z,20.77
2019-01-23T21:28:17.586Z,21.23
2019-01-23T21:33:24.070Z,21.47
2019-01-23T21:38:31.039Z,20.20
2019-01-23T21:43:37.593Z,21.60
2019-01-23T21:48:44.137Z,20.83
2019-01-23T21:53:50.454Z,20.17
2019-01-23T21:58:57.012Z,22.60
2019-01-23T22:04:04.275Z,22.90
2019-01-23T22:09:10.656Z,26.07
2019-01-23T22:14:16.029Z,24.60
2019-01-23T22:19:21.359Z,26.00
2019-01-23T22:24:26.715Z,28.97
2019-01-23T22:29:32.044Z,29.37
2019-01-23T22:34:37.372Z,28.80
2019-01-23T22:39:42.730Z,29.73
2019-01-23T22:44:48.057Z,26.87
2019-01-23T22:49:53.376Z,27.97
2019-01-23T22:54:58.709Z,27.93
2019-01-23T23:00:04.341Z,29.07
2019-01-23T23:05:11.019Z,28.13
2019-01-23T23:10:16.360Z,28.07
2019-01-23T23:15:21.692Z,27.87
2019-01-23T23:20:27.032Z,28.60
2019-01-23T23:25:32.340Z,29.33
2019-01-23T23:30:37.670Z,28.57
2019-01-23T23:35:42.976Z,28.53
2019-01-23T23:40:48.296Z,28.67
2019-01-23T23:45:53.607Z,27.90
2019-01-23T23:50:58.920Z,28.83
2019-01-23T23:56:04.293Z,26.97
